Huntsville's Hourly Summary for Friday, July 6, 2018
Hour Temp
(f)
RH
(%)
Solar Rad.
(MJ/m2)
Rainfall
(in)
Wind
(mph)
7/6/2018 12:00 AM 71 87 0 0 1.1
7/6/2018 1:00 AM 72 87 0 0 1.98
7/6/2018 2:00 AM 72 87 0 0 0.87
7/6/2018 3:00 AM 71 89 0 0 0
7/6/2018 4:00 AM 70 91 0 0 0.02
7/6/2018 5:00 AM 70 92 0 0.01 0
7/6/2018 6:00 AM 69 92 0.03 0 0
7/6/2018 7:00 AM 70 86 0.28 0 0.05
7/6/2018 8:00 AM 75 76 1.12 0 0.46
7/6/2018 9:00 AM 79 69 1.9 0 0.53
7/6/2018 10:00 AM 81 66 2.49 0 1.37
7/6/2018 11:00 AM 84 57 2.85 0 1.59
7/6/2018 12:00 PM 86 48 2.98 0 1.75
7/6/2018 1:00 PM 88 45 2.92 0 2
7/6/2018 2:00 PM 89 45 2.81 0 1.92
7/6/2018 3:00 PM 89 41 2.47 0 2.21
7/6/2018 4:00 PM 87 41 1.42 0 1.71
7/6/2018 5:00 PM 84 53 0.56 0 1.38
7/6/2018 6:00 PM 83 61 0.29 0 0.15
7/6/2018 7:00 PM 83 61 0.2 0 0.13
7/6/2018 8:00 PM 79 68 0.02 0 0.29
7/6/2018 9:00 PM 77 76 0 0 0.07
7/6/2018 10:00 PM 77 81 0 0 0.02
7/6/2018 11:00 PM 76 81 0 0 0
Data Summary 78 70 22.34 0.01 0.82